Time;durP1;ratioP1;P1;durP2;ratioP2;P2;SDS_P1;SDS_P2;PMS_P1;PMS_P2;Temp;Humidity;BMP_temperature;BMP_pressure;BME280_temperature;BME280_humidity;BME280_pressure;Samples;Min_cycle;Max_cycle;Signal;HPM_P1;HPM_P2
2022/08/19 00:01:05;;;;;;;13.40;4.33;;;15.70;99.90;16.80;96311.00;;;;4980095;28;20230;-63
2022/08/19 00:03:54;;;;;;;7.57;3.13;;;15.70;99.90;17.10;96312.00;;;;4980148;28;20196;-64
2022/08/19 00:06:47;;;;;;;5.30;2.63;;;15.80;99.90;16.70;96326.00;;;;4978788;28;20199;-62
2022/08/19 00:09:36;;;;;;;5.57;2.40;;;15.80;99.90;16.60;96331.00;;;;4977191;28;20213;-63
2022/08/19 00:12:25;;;;;;;7.57;2.37;;;15.80;99.90;16.60;96324.00;;;;4969666;28;20218;-63
2022/08/19 00:15:19;;;;;;;5.17;2.60;;;15.70;99.90;16.60;96327.00;;;;4974539;28;20199;-64
2022/08/19 00:18:17;;;;;;;6.33;2.53;;;15.70;99.90;16.70;96337.00;;;;4982420;28;20537;-62
2022/08/19 00:21:17;;;;;;;9.30;2.20;;;15.70;99.90;16.50;96336.00;;;;4978622;28;20231;-63
2022/08/19 00:24:07;;;;;;;9.57;2.50;;;15.70;99.90;16.60;96339.00;;;;4977942;28;20203;-63
2022/08/19 00:26:58;;;;;;;3.70;2.17;;;15.60;99.90;16.70;96341.00;;;;4976137;28;20204;-64
2022/08/19 00:29:47;;;;;;;7.63;3.07;;;15.60;99.90;17.00;96338.00;;;;4968646;28;20227;-63
2022/08/19 00:32:38;;;;;;;11.20;4.17;;;15.70;99.90;17.10;96338.00;;;;4971216;28;20249;-64
2022/08/19 00:35:28;;;;;;;7.97;2.77;;;15.80;99.90;16.80;96306.00;;;;5045645;28;20868;-64
2022/08/19 00:38:22;;;;;;;7.30;3.10;;;15.80;99.90;16.80;96312.00;;;;5039896;28;20212;-63
2022/08/19 00:41:14;;;;;;;8.77;2.47;;;15.80;99.90;16.40;96326.00;;;;4975342;28;20230;-63
2022/08/19 00:44:07;;;;;;;5.43;3.03;;;15.70;99.90;16.80;96332.00;;;;5030216;28;20584;-63
2022/08/19 00:46:59;;;;;;;11.40;3.43;;;15.70;99.90;16.80;96335.00;;;;4972508;28;20207;-63
2022/08/19 00:50:12;;;;;;;12.73;3.90;;;15.70;99.90;16.90;96331.00;;;;4976921;28;20688;-66
2022/08/19 00:53:04;;;;;;;8.90;3.13;;;15.80;99.90;16.90;96333.00;;;;4985717;28;20214;-63
2022/08/19 00:55:57;;;;;;;11.87;3.33;;;15.80;99.90;16.70;96343.00;;;;4975311;28;20570;-63
2022/08/19 01:01:50;;;;;;;6.60;2.93;;;15.70;99.90;16.60;96354.00;;;;4973284;28;20234;-63
2022/08/19 01:04:39;;;;;;;9.77;3.40;;;15.70;99.90;16.60;96370.00;;;;5068862;22;20232;-86
2022/08/19 01:10:38;;;;;;;7.43;2.50;;;15.70;99.90;16.90;96377.00;;;;5048960;28;20228;-85
2022/08/19 01:13:49;;;;;;;7.43;3.43;;;15.70;99.90;16.90;96379.00;;;;5064279;28;20200;-85
2022/08/19 01:16:43;;;;;;;6.20;3.60;;;15.70;99.90;17.10;96385.00;;;;5059314;28;20199;-87
2022/08/19 01:19:37;;;;;;;5.13;2.70;;;15.80;99.90;16.90;96396.00;;;;5053482;28;20227;-87
2022/08/19 01:22:37;;;;;;;6.30;3.37;;;15.80;99.90;16.70;96404.00;;;;5060306;28;20867;-84
2022/08/19 01:25:39;;;;;;;4.80;3.20;;;15.80;99.90;16.50;96386.00;;;;5063191;28;20673;-85
2022/08/19 01:31:32;;;;;;;6.53;3.37;;;15.70;99.90;16.70;96373.00;;;;5086702;28;20586;-62
2022/08/19 01:34:35;;;;;;;7.50;3.40;;;15.70;99.90;17.00;96357.00;;;;5088763;28;20601;-62
2022/08/19 01:37:25;;;;;;;4.57;2.63;;;15.80;99.90;16.90;96349.00;;;;5083458;28;20206;-62
2022/08/19 01:40:19;;;;;;;8.07;3.53;;;15.80;99.90;16.40;96347.00;;;;5080787;28;20283;-67
2022/08/19 01:43:14;;;;;;;5.10;2.73;;;15.80;99.90;16.50;96343.00;;;;5083253;28;20199;-62
2022/08/19 01:46:03;;;;;;;9.13;3.27;;;15.70;99.90;16.80;96339.00;;;;5086225;28;20591;-64
2022/08/19 01:48:53;;;;;;;5.03;3.47;;;15.70;99.90;16.80;96307.00;;;;5089347;28;20226;-63
2022/08/19 01:51:42;;;;;;;7.40;3.40;;;15.80;99.90;16.90;96288.00;;;;5093677;28;20234;-62
2022/08/19 01:54:32;;;;;;;6.93;4.00;;;15.80;99.90;16.80;96285.00;;;;5090469;28;20229;-61
2022/08/19 01:57:25;;;;;;;10.07;4.17;;;15.80;99.90;16.90;96284.00;;;;5080730;28;20191;-62
2022/08/19 02:00:19;;;;;;;8.90;4.27;;;15.80;99.90;16.90;96272.00;;;;5088037;28;20226;-61
2022/08/19 02:03:11;;;;;;;5.23;3.13;;;15.90;99.90;16.50;96268.00;;;;5084230;28;20597;-62
2022/08/19 02:06:02;;;;;;;7.63;3.53;;;15.80;99.90;16.80;96293.00;;;;5078470;28;20671;-64
2022/08/19 02:08:53;;;;;;;8.20;4.27;;;15.80;99.90;17.00;96285.00;;;;5084298;28;20215;-62
2022/08/19 02:11:43;;;;;;;12.00;3.70;;;15.80;99.90;17.10;96308.00;;;;5080910;28;20242;-62
2022/08/19 02:14:35;;;;;;;8.40;3.87;;;15.80;99.90;16.60;96305.00;;;;5084437;28;20226;-62
2022/08/19 02:17:24;;;;;;;9.47;3.73;;;15.90;99.90;16.70;96319.00;;;;5080913;28;20199;-62
2022/08/19 02:20:14;;;;;;;4.27;3.17;;;15.80;99.90;16.90;96297.00;;;;5084497;28;20199;-62
2022/08/19 02:23:11;;;;;;;4.57;3.37;;;15.80;99.90;16.80;96281.00;;;;5090448;28;20226;-62
2022/08/19 02:26:00;;;;;;;9.30;3.63;;;15.80;99.90;16.90;96289.00;;;;5077097;28;20194;-62
2022/08/19 02:28:49;;;;;;;7.43;3.70;;;15.80;99.90;17.10;96282.00;;;;5083398;28;20221;-62
2022/08/19 02:31:39;;;;;;;14.17;3.90;;;15.80;99.90;17.30;96260.00;;;;5091731;28;20208;-62
2022/08/19 02:34:28;;;;;;;5.93;3.20;;;15.90;99.90;17.00;96253.00;;;;5083533;28;20219;-62
2022/08/19 02:40:24;;;;;;;7.83;4.10;;;15.90;99.90;17.10;96258.00;;;;5084570;28;20214;-62
2022/08/19 02:43:13;;;;;;;8.43;3.33;;;16.00;99.90;16.70;96262.00;;;;5083597;28;20203;-64
2022/08/19 02:46:02;;;;;;;6.57;3.53;;;15.90;99.90;16.80;96269.00;;;;5087833;28;20210;-61
2022/08/19 02:48:56;;;;;;;6.30;3.17;;;15.80;99.90;16.80;96262.00;;;;5083411;28;20207;-61
2022/08/19 02:51:47;;;;;;;7.63;3.43;;;15.80;99.90;16.70;96249.00;;;;5085099;28;20219;-61
2022/08/19 02:54:37;;;;;;;9.50;3.80;;;15.80;99.90;16.70;96256.00;;;;5089865;28;20227;-62
2022/08/19 02:57:31;;;;;;;8.67;3.90;;;15.70;99.90;16.50;96261.00;;;;5073177;28;20207;-62
2022/08/19 03:00:20;;;;;;;9.03;3.50;;;15.70;99.90;16.50;96262.00;;;;5092844;28;20203;-62
2022/08/19 03:03:09;;;;;;;7.80;4.23;;;15.60;99.90;16.70;96268.00;;;;5090612;28;20550;-62
2022/08/19 03:09:29;;;;;;;8.17;3.77;;;15.70;99.90;17.10;96272.00;;;;5044042;28;20198;-61
2022/08/19 03:12:20;;;;;;;6.73;3.97;;;15.80;99.90;17.00;96271.00;;;;5090184;28;20223;-61
2022/08/19 03:15:11;;;;;;;8.70;4.07;;;15.80;99.90;17.10;96264.00;;;;5086090;28;20227;-61
2022/08/19 03:17:59;;;;;;;10.43;4.40;;;15.80;99.90;17.20;96256.00;;;;5090475;28;20211;-62
2022/08/19 03:20:54;;;;;;;10.43;3.97;;;15.80;99.90;17.00;96248.00;;;;5085624;28;20203;-61
2022/08/19 03:26:52;;;;;;;5.63;4.20;;;15.80;99.90;17.00;96256.00;;;;5036582;28;20210;-62
2022/08/19 03:29:44;;;;;;;11.27;4.10;;;15.90;99.90;17.00;96260.00;;;;5075891;28;20584;-62
2022/08/19 03:32:33;;;;;;;9.57;4.60;;;15.90;99.90;17.00;96276.00;;;;5084021;28;20617;-62
2022/08/19 03:35:25;;;;;;;7.20;3.67;;;15.90;99.90;16.80;96283.00;;;;5090913;28;20246;-62
2022/08/19 03:38:22;;;;;;;11.20;4.03;;;15.90;99.90;16.90;96283.00;;;;5091540;28;20206;-62
2022/08/19 03:41:28;;;;;;;6.80;4.90;;;15.80;99.90;17.10;96295.00;;;;5090121;28;20198;-62
2022/08/19 03:44:20;;;;;;;6.90;4.07;;;15.90;99.90;17.10;96293.00;;;;5087365;28;20225;-62
2022/08/19 03:47:09;;;;;;;12.20;4.87;;;15.90;99.90;16.90;96301.00;;;;5093008;28;20191;-62
2022/08/19 03:50:08;;;;;;;8.40;4.07;;;15.90;99.90;16.70;96336.00;;;;5084097;28;20205;-63
2022/08/19 03:53:02;;;;;;;11.63;6.00;;;15.90;99.90;17.00;96366.00;;;;5089785;28;20268;-61
2022/08/19 03:55:51;;;;;;;9.77;4.60;;;15.90;99.90;16.60;96441.00;;;;5086237;28;20202;-61
2022/08/19 03:58:42;;;;;;;8.33;4.50;;;16.00;99.90;17.30;96456.00;;;;5084097;28;20200;-61
2022/08/19 04:01:31;;;;;;;8.77;5.43;;;16.00;99.90;17.70;96433.00;;;;5086808;28;20569;-61
2022/08/19 04:04:21;;;;;;;9.03;5.37;;;16.10;99.90;17.90;96430.00;;;;5089533;28;20257;-61
2022/08/19 04:07:12;;;;;;;13.47;6.20;;;16.30;99.90;18.00;96429.00;;;;5089277;28;20290;-61
2022/08/19 04:10:01;;;;;;;11.43;6.73;;;16.40;99.90;18.10;96410.00;;;;5088745;28;20211;-60
2022/08/19 04:12:50;;;;;;;12.60;7.00;;;16.50;99.90;18.20;96402.00;;;;5086628;28;20709;-61
2022/08/19 04:15:42;;;;;;;13.50;6.47;;;16.60;99.90;18.30;96392.00;;;;5088779;28;20202;-60
2022/08/19 04:18:33;;;;;;;12.03;6.87;;;16.70;99.90;18.40;96383.00;;;;5090348;28;20226;-60
2022/08/19 04:21:36;;;;;;;11.00;7.17;;;16.80;99.90;18.50;96368.00;;;;5081832;28;20210;-60
2022/08/19 04:24:35;;;;;;;9.37;6.97;;;16.90;99.90;18.60;96354.00;;;;5082893;28;20228;-61
2022/08/19 04:27:33;;;;;;;9.93;6.90;;;17.00;99.90;18.60;96373.00;;;;5083507;28;20196;-59
2022/08/19 04:33:28;;;;;;;15.30;7.37;;;17.20;99.90;18.80;96373.00;;;;5084140;28;20238;-60
2022/08/19 04:42:39;;;;;;;10.67;6.83;;;17.30;99.90;18.70;96384.00;;;;5086953;28;21130;-60
2022/08/19 04:45:31;;;;;;;7.50;6.13;;;17.30;99.90;18.80;96377.00;;;;5086740;28;20230;-60
2022/08/19 04:48:25;;;;;;;10.07;6.97;;;17.30;99.90;18.90;96362.00;;;;5087066;28;20202;-60
2022/08/19 04:51:20;;;;;;;9.80;6.33;;;17.40;99.90;18.90;96336.00;;;;5085988;28;20191;-60
2022/08/19 04:54:11;;;;;;;11.60;5.50;;;17.40;99.90;18.90;96340.00;;;;5079034;28;20220;-60
2022/08/19 04:57:01;;;;;;;8.57;5.37;;;17.40;99.90;19.10;96349.00;;;;5069580;28;20210;-60
2022/08/19 05:00:02;;;;;;;9.93;5.77;;;17.50;99.90;19.20;96346.00;;;;5069921;28;20211;-60
2022/08/19 05:02:52;;;;;;;10.50;4.83;;;17.60;99.90;19.10;96347.00;;;;5055641;28;20187;-60
2022/08/19 05:05:42;;;;;;;9.50;5.70;;;17.60;99.90;19.10;96339.00;;;;5084593;28;20206;-61
2022/08/19 05:08:33;;;;;;;14.10;5.57;;;17.70;99.90;19.20;96342.00;;;;5084893;28;20217;-60
2022/08/19 05:11:28;;;;;;;8.50;6.00;;;17.70;99.90;19.10;96368.00;;;;5087201;28;20195;-60
2022/08/19 05:14:25;;;;;;;10.77;7.40;;;17.70;99.90;18.90;96384.00;;;;5087795;28;20235;-61
2022/08/19 05:17:14;;;;;;;11.20;7.87;;;17.70;99.90;18.80;96383.00;;;;5087640;28;20203;-60
2022/08/19 05:23:27;;;;;;;16.83;8.43;;;17.60;99.90;19.00;96385.00;;;;5078638;28;20673;-61
2022/08/19 05:26:19;;;;;;;13.17;7.63;;;17.70;99.90;19.10;96407.00;;;;5075549;28;20203;-61
2022/08/19 05:29:12;;;;;;;13.80;7.80;;;17.70;99.90;19.00;96404.00;;;;5081083;28;20222;-61
2022/08/19 05:32:01;;;;;;;15.97;8.23;;;17.70;99.90;19.00;96393.00;;;;5086175;28;20203;-61
2022/08/19 05:34:50;;;;;;;12.20;6.57;;;17.70;99.90;19.00;96411.00;;;;5087258;28;20227;-61
2022/08/19 05:37:40;;;;;;;16.10;9.00;;;17.70;99.90;19.10;96412.00;;;;5076304;28;20222;-61
2022/08/19 05:40:30;;;;;;;12.07;7.43;;;17.70;99.90;19.00;96407.00;;;;5088086;28;20230;-61
2022/08/19 05:43:20;;;;;;;11.93;8.47;;;17.80;99.90;18.90;96407.00;;;;5021444;28;20202;-61
2022/08/19 05:46:09;;;;;;;10.50;7.37;;;17.80;99.90;18.80;96401.00;;;;5074755;28;20212;-61
2022/08/19 05:48:59;;;;;;;7.63;6.20;;;17.80;99.90;19.30;96403.00;;;;5084724;28;20585;-61
2022/08/19 05:51:53;;;;;;;7.47;6.27;;;17.80;99.90;19.60;96411.00;;;;5072219;28;20199;-61
2022/08/19 05:54:47;;;;;;;10.80;6.07;;;17.90;99.90;20.00;96409.00;;;;5070196;28;20220;-61
2022/08/19 05:57:36;;;;;;;8.30;6.57;;;18.10;99.90;20.00;96413.00;;;;5090278;28;20203;-61
2022/08/19 06:00:26;;;;;;;10.17;6.83;;;18.30;99.90;19.90;96412.00;;;;5091566;28;20206;-60
2022/08/19 06:03:15;;;;;;;9.53;7.17;;;18.40;99.90;19.80;96418.00;;;;5089065;28;20199;-61
2022/08/19 06:06:05;;;;;;;9.77;7.60;;;18.40;99.90;19.70;96427.00;;;;5086852;28;20210;-61
2022/08/19 06:08:55;;;;;;;8.70;6.67;;;18.40;99.90;19.70;96428.00;;;;5085795;28;20203;-62
2022/08/19 06:11:53;;;;;;;13.00;7.47;;;18.40;99.90;19.70;96434.00;;;;5083088;28;20570;-61
2022/08/19 06:14:47;;;;;;;9.77;6.47;;;18.40;99.90;20.00;96428.00;;;;5069412;28;20272;-61
2022/08/19 06:20:40;;;;;;;13.53;6.80;;;18.70;99.90;20.80;96393.00;;;;5083634;28;20203;-61
2022/08/19 06:23:42;;;;;;;9.93;6.00;;;18.80;99.90;21.20;96379.00;;;;5073302;28;20218;-61
2022/08/19 06:26:31;;;;;;;11.23;5.07;;;19.10;99.90;21.40;96386.00;;;;5080779;28;20644;-61
2022/08/19 06:29:26;;;;;;;11.77;6.03;;;19.30;99.90;21.00;96393.00;;;;5053942;28;1237930;-61
2022/08/19 06:32:21;;;;;;;9.17;5.60;;;19.50;99.90;21.20;96389.00;;;;5092086;28;20422;-61
2022/08/19 06:35:13;;;;;;;9.83;5.13;;;19.50;99.90;21.70;96373.00;;;;5086292;28;20594;-62
2022/08/19 06:38:13;;;;;;;9.60;5.97;;;19.70;99.90;21.80;96355.00;;;;5088081;28;20200;-61
2022/08/19 06:41:04;;;;;;;10.60;4.47;;;19.90;99.90;21.70;96370.00;;;;5081176;28;20203;-62
2022/08/19 06:43:56;;;;;;;10.87;5.77;;;20.00;99.90;21.90;96367.00;;;;5085039;28;20226;-62
2022/08/19 06:46:45;;;;;;;11.43;4.70;;;20.10;99.90;21.60;96377.00;;;;5082570;28;20195;-62
2022/08/19 06:49:35;;;;;;;9.50;5.43;;;20.20;99.90;22.00;96374.00;;;;5083631;28;20203;-61
2022/08/19 06:52:35;;;;;;;8.93;5.90;;;20.30;99.90;21.80;96380.00;;;;5087967;28;20196;-62
2022/08/19 06:55:29;;;;;;;7.03;4.90;;;20.30;99.90;22.00;96381.00;;;;5080773;28;20583;-62
2022/08/19 06:58:20;;;;;;;6.83;5.10;;;20.30;99.90;22.00;96384.00;;;;5078849;28;20832;-61
2022/08/19 07:01:10;;;;;;;15.00;6.73;;;20.40;99.90;22.20;96393.00;;;;5088379;28;20203;-62
2022/08/19 07:04:00;;;;;;;8.70;5.93;;;20.50;99.90;22.10;96399.00;;;;5088472;28;20220;-62
2022/08/19 07:06:50;;;;;;;9.10;4.43;;;20.50;99.90;22.10;96414.00;;;;5081057;28;20199;-62
2022/08/19 07:09:42;;;;;;;9.43;5.07;;;20.60;99.90;22.30;96431.00;;;;5095883;28;20211;-61
2022/08/19 07:12:34;;;;;;;6.57;4.63;;;20.70;99.90;22.30;96433.00;;;;5080864;28;20205;-61
2022/08/19 07:15:23;;;;;;;7.63;4.50;;;20.70;99.90;22.10;96434.00;;;;5082289;28;20599;-62
2022/08/19 07:18:12;;;;;;;9.93;5.40;;;20.70;99.90;22.00;96449.00;;;;5087982;28;20199;-62
2022/08/19 07:21:06;;;;;;;10.13;5.50;;;20.70;99.90;21.60;96461.00;;;;5084118;28;20192;-61
2022/08/19 07:23:56;;;;;;;10.60;5.77;;;20.50;99.90;21.50;96456.00;;;;5084696;28;20223;-61
2022/08/19 07:26:46;;;;;;;9.87;6.13;;;20.50;99.90;22.00;96453.00;;;;5081107;28;20203;-61
2022/08/19 07:29:37;;;;;;;7.77;4.43;;;20.50;99.90;22.20;96448.00;;;;5049292;28;20199;-61
2022/08/19 07:32:30;;;;;;;7.37;4.57;;;20.50;99.90;22.30;96443.00;;;;5082838;28;20203;-62
2022/08/19 07:35:20;;;;;;;5.63;4.23;;;20.60;99.90;22.50;96448.00;;;;5086515;28;20215;-62
2022/08/19 07:38:10;;;;;;;9.23;4.07;;;20.70;99.90;22.60;96453.00;;;;5087868;28;20227;-62
2022/08/19 07:40:58;;;;;;;9.20;4.47;;;20.80;99.90;22.70;96450.00;;;;5088754;28;20207;-62
2022/08/19 07:43:49;;;;;;;8.00;3.53;;;20.80;99.90;22.70;96435.00;;;;5078451;28;20220;-62
2022/08/19 07:46:45;;;;;;;4.83;3.57;;;20.90;99.90;22.90;96440.00;;;;5082995;28;20575;-62
2022/08/19 07:49:34;;;;;;;5.80;3.70;;;21.00;99.90;22.90;96447.00;;;;5082998;28;20202;-62
2022/08/19 07:52:24;;;;;;;12.17;4.53;;;21.10;99.90;23.00;96445.00;;;;5087768;28;20210;-62
2022/08/19 07:55:13;;;;;;;5.50;3.13;;;21.20;99.90;23.00;96456.00;;;;5098320;28;20769;-61
2022/08/19 07:58:01;;;;;;;4.87;3.73;;;21.20;99.90;22.90;96465.00;;;;5077308;28;20230;-62
2022/08/19 08:00:52;;;;;;;7.27;2.97;;;21.20;99.90;22.90;96466.00;;;;5083247;28;20578;-62
2022/08/19 08:09:54;;;;;;;4.90;3.03;;;21.20;99.90;22.90;96469.00;;;;5086509;28;20207;-62
2022/08/19 08:12:49;;;;;;;5.80;3.17;;;21.20;99.90;22.80;96477.00;;;;5079128;28;20674;-62
2022/08/19 08:15:39;;;;;;;6.13;2.90;;;21.20;99.90;22.70;96487.00;;;;5085209;28;20215;-62
2022/08/19 08:18:41;;;;;;;6.50;3.53;;;21.20;99.90;22.70;96477.00;;;;5063617;28;20712;-61
2022/08/19 08:21:30;;;;;;;11.07;3.23;;;21.10;99.90;22.80;96451.00;;;;5087836;28;20238;-62
2022/08/19 08:24:20;;;;;;;3.50;3.20;;;21.10;99.90;22.50;96428.00;;;;5087239;28;20219;-62
2022/08/19 08:27:08;;;;;;;4.70;2.73;;;21.10;99.90;22.40;96431.00;;;;5085433;28;20207;-62
2022/08/19 08:30:06;;;;;;;3.43;2.77;;;21.00;99.90;22.20;96439.00;;;;5090970;28;20222;-62
2022/08/19 08:32:55;;;;;;;6.33;3.07;;;20.90;99.90;21.80;96438.00;;;;5082226;28;20199;-62
2022/08/19 08:35:46;;;;;;;5.80;3.50;;;20.80;99.90;21.60;96411.00;;;;5085910;28;20203;-62
2022/08/19 08:38:36;;;;;;;4.23;3.13;;;20.50;99.90;21.70;96429.00;;;;5080995;28;20195;-64
2022/08/19 08:41:40;;;;;;;3.83;2.67;;;20.40;99.90;21.60;96418.00;;;;5076754;28;20207;-62
2022/08/19 08:44:41;;;;;;;5.90;3.43;;;20.30;99.90;21.80;96389.00;;;;5081764;28;20658;-62
2022/08/19 08:47:37;;;;;;;5.47;3.10;;;20.30;99.90;22.20;96389.00;;;;5086437;28;20214;-62
2022/08/19 08:50:36;;;;;;;6.47;3.10;;;20.40;99.90;22.70;96390.00;;;;5079891;28;20202;-62
2022/08/19 08:53:26;;;;;;;9.13;3.27;;;20.60;99.90;23.00;96396.00;;;;5081447;28;20192;-62
2022/08/19 08:56:16;;;;;;;5.10;2.60;;;20.80;99.90;23.00;96402.00;;;;5086417;28;20237;-62
2022/08/19 08:59:11;;;;;;;4.83;2.70;;;21.00;99.90;23.30;96390.00;;;;5083603;28;20225;-62
2022/08/19 09:02:00;;;;;;;4.83;2.57;;;21.20;99.90;23.90;96369.00;;;;5081456;28;20431;-62
2022/08/19 09:04:49;;;;;;;7.17;2.37;;;21.50;99.90;24.00;96360.00;;;;5089769;28;20234;-62
2022/08/19 09:07:50;;;;;;;4.67;2.70;;;21.80;99.90;24.40;96370.00;;;;5087866;28;20203;-61
2022/08/19 09:10:53;;;;;;;2.90;2.60;;;22.00;99.90;24.40;96374.00;;;;5070340;28;20708;-62
2022/08/19 09:13:56;;;;;;;8.37;2.93;;;22.30;99.90;24.20;96387.00;;;;5071027;28;20226;-62
2022/08/19 09:16:44;;;;;;;3.67;2.73;;;22.40;99.90;24.20;96408.00;;;;5072426;28;20199;-62
2022/08/19 09:19:36;;;;;;;6.00;2.70;;;22.40;99.90;24.20;96419.00;;;;5085158;28;20667;-62
2022/08/19 09:22:26;;;;;;;5.03;3.00;;;22.40;99.90;24.00;96447.00;;;;5078112;28;20191;-62
2022/08/19 09:25:21;;;;;;;4.40;2.73;;;22.50;99.90;24.20;96443.00;;;;5089285;28;20298;-62
2022/08/19 09:28:19;;;;;;;4.97;2.60;;;22.40;99.90;24.50;96430.00;;;;5084575;28;20199;-62
2022/08/19 09:31:08;;;;;;;2.77;2.57;;;22.50;99.90;24.80;96411.00;;;;5091724;28;20221;-62
2022/08/19 09:33:57;;;;;;;6.37;3.07;;;22.70;99.90;24.90;96401.00;;;;5088039;28;20226;-62
2022/08/19 09:36:49;;;;;;;4.23;2.73;;;22.80;99.90;24.90;96385.00;;;;5084915;28;20581;-62
2022/08/19 09:44:14;;;;;;;7.15;3.10;;;23.10;99.90;24.60;96338.00;;;;5094169;27;20378;-66
2022/08/19 09:47:11;;;;;;;5.20;3.10;;;23.00;99.90;24.80;96334.00;;;;5075725;28;20980;-66
2022/08/19 09:50:00;;;;;;;5.70;3.05;;;23.00;99.90;24.90;96333.00;;;;5077609;28;20392;-66
2022/08/19 09:52:58;;;;;;;6.80;3.78;;;23.10;99.90;25.10;96363.00;;;;5078021;28;20400;-66
2022/08/19 09:55:47;;;;;;;7.45;3.65;;;23.20;99.90;25.20;96386.00;;;;5092742;28;20925;-66
2022/08/19 09:58:39;;;;;;;6.28;3.45;;;23.30;99.90;25.20;96384.00;;;;5081474;28;20391;-66
2022/08/19 10:01:32;;;;;;;3.78;3.38;;;23.40;99.90;25.20;96382.00;;;;5081468;28;20383;-65
2022/08/19 10:04:21;;;;;;;5.03;3.20;;;23.40;99.90;25.20;96361.00;;;;5080515;28;20395;-65
2022/08/19 10:07:10;;;;;;;6.78;2.90;;;23.40;99.90;25.20;96402.00;;;;5083296;28;20398;-65
2022/08/19 10:10:01;;;;;;;7.75;3.47;;;23.50;99.90;25.20;96422.00;;;;5102362;28;20389;-65
2022/08/19 10:12:51;;;;;;;5.82;3.10;;;23.50;99.90;24.80;96429.00;;;;5101573;28;20393;-69
2022/08/19 10:15:41;;;;;;;5.38;3.30;;;23.50;99.90;24.80;96429.00;;;;5089143;28;20392;-66
2022/08/19 10:18:33;;;;;;;6.65;3.60;;;23.40;99.90;24.70;96429.00;;;;5103351;28;20761;-67
2022/08/19 10:21:25;;;;;;;7.25;3.60;;;23.40;99.90;25.00;96413.00;;;;5091793;28;20396;-67
2022/08/19 10:24:14;;;;;;;4.88;3.47;;;23.30;99.90;25.10;96419.00;;;;5101382;28;20412;-67
2022/08/19 10:27:05;;;;;;;5.07;3.72;;;23.30;99.90;25.40;96412.00;;;;5101518;28;20377;-66
2022/08/19 10:29:54;;;;;;;4.37;2.60;;;23.40;99.90;25.60;96423.00;;;;5105847;28;20556;-66
2022/08/19 10:32:44;;;;;;;4.97;2.87;;;23.60;99.90;25.30;96426.00;;;;5104147;28;20204;-66
2022/08/19 10:35:34;;;;;;;5.23;2.93;;;23.70;99.90;25.20;96403.00;;;;5104541;28;20751;-66
2022/08/19 10:38:24;;;;;;;9.17;2.80;;;23.70;99.90;25.20;96415.00;;;;5100029;28;20206;-66
2022/08/19 10:41:15;;;;;;;4.70;2.67;;;23.70;99.90;25.30;96431.00;;;;5102571;28;20199;-67
2022/08/19 10:44:10;;;;;;;5.03;3.17;;;23.70;99.90;25.10;96425.00;;;;5097802;28;20223;-67
2022/08/19 10:47:00;;;;;;;4.93;3.43;;;23.60;99.90;25.30;96431.00;;;;5092744;28;20210;-66
2022/08/19 10:53:14;;;;;;;4.80;3.97;;;23.60;99.90;25.70;96432.00;;;;5102471;28;20202;-67
2022/08/19 10:59:13;;;;;;;5.70;3.10;;;23.90;99.90;26.20;96407.00;;;;5080147;28;20912;-67
2022/08/19 11:02:12;;;;;;;6.30;3.80;;;24.20;99.90;26.80;96410.00;;;;5086539;28;20204;-67
2022/08/19 11:05:02;;;;;;;3.93;3.53;;;24.40;99.90;26.80;96387.00;;;;5090142;28;20219;-67
2022/08/19 11:07:52;;;;;;;7.60;3.77;;;24.70;99.90;26.80;96402.00;;;;5089927;28;20205;-67
2022/08/19 11:10:45;;;;;;;4.77;2.90;;;24.90;99.90;27.00;96387.00;;;;5090486;28;20199;-66
2022/08/19 11:13:38;;;;;;;5.13;2.60;;;25.00;99.90;27.10;96380.00;;;;5089683;28;20212;-66
2022/08/19 11:16:29;;;;;;;5.67;3.00;;;25.10;99.90;27.30;96384.00;;;;5088742;28;20215;-67
2022/08/19 11:19:20;;;;;;;5.23;2.93;;;25.30;99.90;27.60;96379.00;;;;5087589;28;20209;-67
2022/08/19 11:22:09;;;;;;;11.73;3.53;;;25.40;99.90;28.00;96392.00;;;;5089076;28;20582;-67
2022/08/19 11:24:58;;;;;;;5.60;3.10;;;25.70;99.90;28.70;96404.00;;;;5077886;28;20239;-67
2022/08/19 11:27:51;;;;;;;2.30;2.00;;;26.10;99.90;27.90;96441.00;;;;5090292;28;20203;-67
2022/08/19 11:30:40;;;;;;;7.03;3.17;;;26.30;99.90;27.70;96448.00;;;;5084139;28;20197;-67
2022/08/19 11:33:32;;;;;;;6.87;2.43;;;26.30;99.90;27.60;96449.00;;;;5088646;28;20217;-68
2022/08/19 11:36:22;;;;;;;10.37;3.30;;;26.20;99.90;28.10;96408.00;;;;5075960;28;20198;-68
2022/08/19 11:39:14;;;;;;;7.43;2.67;;;26.10;99.90;27.90;96422.00;;;;5082769;28;20200;-68
2022/08/19 11:42:54;;;;;;;4.60;2.30;;;26.00;99.90;27.80;96425.00;;;;5086226;28;20207;-68
2022/08/19 11:45:16;;;;;;;7.03;3.27;;;26.00;99.90;27.10;96431.00;;;;5082721;28;20255;-68
2022/08/19 11:48:05;;;;;;;12.63;3.03;;;25.90;99.90;27.50;96406.00;;;;5082184;28;20212;-68
2022/08/19 11:50:56;;;;;;;5.10;2.50;;;25.80;99.90;27.90;96412.00;;;;5086829;28;20214;-68
2022/08/19 11:53:45;;;;;;;5.73;2.80;;;25.90;99.90;28.10;96392.00;;;;5079386;28;20222;-67
2022/08/19 11:56:34;;;;;;;3.93;2.37;;;26.00;99.90;28.80;96385.00;;;;5081031;28;20423;-67
2022/08/19 11:59:26;;;;;;;7.37;3.13;;;26.30;99.90;29.60;96369.00;;;;5084195;28;20493;-68
2022/08/19 12:02:16;;;;;;;4.47;2.37;;;26.70;99.90;30.00;96385.00;;;;5087045;28;20205;-68
2022/08/19 12:05:06;;;;;;;6.33;2.20;;;27.10;99.90;30.00;96382.00;;;;5082610;28;20230;-67
2022/08/19 12:07:59;;;;;;;4.70;2.53;;;27.40;99.90;30.10;96365.00;;;;5078661;28;20240;-67
2022/08/19 12:10:48;;;;;;;5.47;2.13;;;27.70;99.90;30.40;96352.00;;;;5081528;28;20207;-68
2022/08/19 12:13:38;;;;;;;4.43;2.33;;;27.90;99.90;30.80;96351.00;;;;5084055;28;20231;-68
2022/08/19 12:16:30;;;;;;;4.90;2.37;;;28.20;99.90;29.20;96358.00;;;;5068296;28;20194;-67
2022/08/19 12:19:20;;;;;;;6.50;2.70;;;28.20;99.90;29.50;96343.00;;;;5084230;28;20212;-68
2022/08/19 12:22:09;;;;;;;6.67;3.07;;;28.10;99.90;29.30;96335.00;;;;5082040;28;20193;-69
2022/08/19 12:24:58;;;;;;;6.20;2.90;;;27.90;99.90;29.40;96354.00;;;;5075324;28;20236;-69
2022/08/19 12:27:49;;;;;;;4.97;2.40;;;27.80;99.90;30.10;96339.00;;;;5087790;28;20198;-67
2022/08/19 12:30:44;;;;;;;9.90;2.67;;;27.80;99.90;30.10;96308.00;;;;5084274;28;20201;-67
2022/08/19 12:33:35;;;;;;;6.90;2.83;;;28.10;99.90;30.80;96302.00;;;;5080834;28;20224;-70
2022/08/19 12:36:26;;;;;;;7.10;2.93;;;28.60;99.90;31.90;96311.00;;;;5084803;28;20197;-68
2022/08/19 12:39:15;;;;;;;7.70;3.78;;;29.10;99.90;32.40;96309.00;;;;5088434;28;20209;-69
2022/08/19 12:42:08;;;;;;;4.95;2.63;;;29.50;99.90;32.80;96336.00;;;;5091956;28;20211;-68
2022/08/19 12:45:03;;;;;;;6.15;2.75;;;29.80;99.90;31.40;96354.00;;;;5078109;28;20229;-69
2022/08/19 12:47:52;;;;;;;6.88;2.63;;;29.90;98.90;31.60;96341.00;;;;5067998;28;20207;-68
2022/08/19 12:50:45;;;;;;;7.50;3.30;;;29.80;95.80;31.80;96328.00;;;;5066986;28;20196;-68
2022/08/19 12:53:35;;;;;;;7.28;2.67;;;29.70;95.40;30.30;96340.00;;;;5052310;28;20229;-66
2022/08/19 12:56:24;;;;;;;7.13;2.92;;;29.40;93.80;32.50;96318.00;;;;5078053;28;20273;-67
2022/08/19 12:59:13;;;;;;;12.02;3.08;;;29.60;94.40;33.50;96324.00;;;;5068661;28;20205;-68
2022/08/19 13:02:03;;;;;;;8.30;2.75;;;30.20;93.70;33.40;96318.00;;;;5063471;28;20802;-68
2022/08/19 13:07:23;;;;;;;4.07;1.80;;;30.80;90.00;31.10;96304.00;;;;5055462;28;20233;-71
2022/08/19 13:10:17;;;;;;;8.75;2.35;;;30.50;86.40;31.50;96315.00;;;;5059240;28;20210;-72
2022/08/19 13:13:11;;;;;;;7.80;2.15;;;30.20;85.20;31.00;96371.00;;;;5078075;28;20703;-69
2022/08/19 13:16:03;;;;;;;5.68;2.50;;;30.00;81.90;30.20;96287.00;;;;5078213;28;20704;-72
2022/08/19 13:18:52;;;;;;;6.55;1.75;;;29.10;83.90;30.00;96298.00;;;;5074790;28;20206;-72
2022/08/19 13:21:41;;;;;;;5.28;2.35;;;29.00;82.50;31.10;96306.00;;;;5080787;28;20202;-72
2022/08/19 13:24:31;;;;;;;6.60;1.95;;;29.00;82.00;33.40;96290.00;;;;5080945;28;20222;-72
2022/08/19 13:27:41;;;;;;;5.90;2.13;;;29.60;85.00;30.90;96335.00;;;;5086112;28;20699;-72
2022/08/19 13:33:40;;;;;;;6.50;2.40;;;29.40;81.20;30.70;96307.00;;;;5085643;28;20211;-72
2022/08/19 13:36:29;;;;;;;6.63;2.10;;;29.50;81.60;32.40;96326.00;;;;5083094;28;20218;-72
2022/08/19 13:39:17;;;;;;;5.28;2.05;;;29.70;82.70;31.00;96347.00;;;;5075705;28;20210;-72